createdAt,value
2019-03-12T00:00:57.169Z,100.00
2019-03-12T00:03:25.436Z,100.00
2019-03-12T00:05:53.690Z,100.00
2019-03-12T00:08:21.952Z,100.00
2019-03-12T00:10:50.246Z,100.00
2019-03-12T00:13:18.525Z,100.00
2019-03-12T00:15:46.819Z,100.00
2019-03-12T00:18:15.079Z,100.00
2019-03-12T00:20:43.358Z,100.00
2019-03-12T00:23:11.625Z,100.00
2019-03-12T00:25:39.906Z,100.00
2019-03-12T00:28:08.198Z,100.00
2019-03-12T00:30:36.469Z,100.00
2019-03-12T00:33:04.746Z,100.00
2019-03-12T00:35:33.033Z,100.00
2019-03-12T00:38:01.307Z,100.00
2019-03-12T00:40:29.577Z,100.00
2019-03-12T00:42:57.860Z,100.00
2019-03-12T00:45:26.115Z,100.00
2019-03-12T00:47:54.382Z,100.00
2019-03-12T00:50:22.648Z,100.00
2019-03-12T00:52:50.932Z,100.00
2019-03-12T00:55:19.233Z,100.00
2019-03-12T00:57:47.494Z,100.00
2019-03-12T01:03:35.650Z,100.00
2019-03-12T01:06:03.946Z,100.00
2019-03-12T01:08:32.210Z,100.00
2019-03-12T01:11:00.540Z,100.00
2019-03-12T01:13:28.798Z,100.00
2019-03-12T01:15:57.065Z,100.00
2019-03-12T01:18:25.325Z,100.00
2019-03-12T01:20:53.604Z,100.00
2019-03-12T01:23:21.866Z,100.00
2019-03-12T01:25:50.142Z,100.00
2019-03-12T01:28:18.446Z,100.00
2019-03-12T01:30:46.700Z,100.00
2019-03-12T01:33:14.970Z,100.00
2019-03-12T01:35:43.246Z,100.00
2019-03-12T01:38:11.523Z,100.00
2019-03-12T01:40:39.812Z,100.00
2019-03-12T01:43:08.077Z,100.00
2019-03-12T01:45:36.358Z,100.00
2019-03-12T01:51:24.473Z,100.00
2019-03-12T01:53:52.750Z,100.00
2019-03-12T01:56:21.026Z,100.00
2019-03-12T01:58:49.317Z,100.00
2019-03-12T02:01:17.588Z,100.00
2019-03-12T02:03:45.882Z,100.00
2019-03-12T02:06:14.155Z,100.00
2019-03-12T02:08:42.440Z,100.00
2019-03-12T02:11:10.736Z,100.00
2019-03-12T02:13:39.021Z,100.00
2019-03-12T02:16:07.287Z,100.00
2019-03-12T02:18:35.563Z,100.00
2019-03-12T02:21:03.830Z,100.00
2019-03-12T02:23:32.095Z,100.00
2019-03-12T02:26:00.381Z,100.00
2019-03-12T02:28:28.680Z,100.00
2019-03-12T02:30:56.956Z,100.00
2019-03-12T02:33:25.381Z,100.00
2019-03-12T02:35:53.578Z,100.00
2019-03-12T02:38:21.841Z,100.00
2019-03-12T02:40:50.110Z,100.00
2019-03-12T02:43:18.386Z,100.00
2019-03-12T02:45:46.670Z,100.00
2019-03-12T02:48:14.940Z,100.00
2019-03-12T02:50:43.209Z,100.00
2019-03-12T02:53:11.503Z,100.00
2019-03-12T02:55:39.788Z,100.00
2019-03-12T02:58:08.068Z,100.00
2019-03-12T03:00:36.361Z,100.00
2019-03-12T03:03:04.636Z,100.00
2019-03-12T03:11:00.838Z,100.00
2019-03-12T03:13:29.112Z,100.00
2019-03-12T03:15:57.379Z,100.00
2019-03-12T03:18:25.657Z,100.00
2019-03-12T03:20:53.939Z,100.00
2019-03-12T03:23:22.212Z,100.00
2019-03-12T03:25:50.490Z,100.00
2019-03-12T03:28:18.791Z,100.00
2019-03-12T03:30:47.076Z,100.00
2019-03-12T03:33:15.341Z,100.00
2019-03-12T03:35:43.620Z,100.00
2019-03-12T03:38:11.901Z,100.00
2019-03-12T03:40:40.171Z,100.00
2019-03-12T03:43:08.462Z,100.00
2019-03-12T03:45:36.743Z,100.00
2019-03-12T03:48:05.139Z,100.00
2019-03-12T03:50:33.383Z,100.00
2019-03-12T03:53:01.651Z,100.00
2019-03-12T03:55:29.982Z,100.00
2019-03-12T03:57:58.299Z,100.00
2019-03-12T04:00:26.636Z,100.00
2019-03-12T04:02:54.937Z,100.00
2019-03-12T04:05:23.191Z,100.00
2019-03-12T04:07:51.478Z,100.00
2019-03-12T04:10:39.092Z,100.00
2019-03-12T04:13:07.388Z,100.00
2019-03-12T04:15:35.678Z,100.00
2019-03-12T04:18:03.966Z,100.00
2019-03-12T04:20:32.323Z,100.00
2019-03-12T04:23:00.587Z,100.00
2019-03-12T04:25:28.847Z,100.00
2019-03-12T04:27:57.122Z,100.00
2019-03-12T04:30:25.417Z,100.00
2019-03-12T04:32:53.751Z,100.00
2019-03-12T04:38:17.551Z,100.00
2019-03-12T04:40:45.830Z,100.00
2019-03-12T04:43:14.094Z,100.00
2019-03-12T04:45:42.376Z,100.00
2019-03-12T04:48:10.647Z,100.00
2019-03-12T04:50:38.916Z,100.00
2019-03-12T04:53:07.190Z,100.00
2019-03-12T04:55:35.449Z,100.00
2019-03-12T04:58:03.726Z,100.00
2019-03-12T05:00:32.000Z,100.00
2019-03-12T05:03:00.251Z,100.00
2019-03-12T05:05:28.534Z,100.00
2019-03-12T05:07:56.816Z,100.00
2019-03-12T05:10:25.101Z,100.00
2019-03-12T05:16:06.566Z,100.00
2019-03-12T05:18:34.847Z,100.00
2019-03-12T05:21:03.115Z,100.00
2019-03-12T05:23:31.394Z,100.00
2019-03-12T05:25:59.670Z,100.00
2019-03-12T05:28:27.945Z,100.00
2019-03-12T05:30:56.226Z,100.00
2019-03-12T05:33:24.510Z,100.00
2019-03-12T05:35:52.761Z,100.00
2019-03-12T05:38:21.053Z,100.00
2019-03-12T05:40:49.660Z,100.00
2019-03-12T05:43:17.938Z,100.00
2019-03-12T05:45:46.227Z,100.00
2019-03-12T05:48:14.487Z,100.00
2019-03-12T05:50:43.096Z,100.00
2019-03-12T05:56:18.877Z,100.00
2019-03-12T05:58:47.161Z,100.00
2019-03-12T06:01:15.545Z,100.00
2019-03-12T06:03:43.812Z,100.00
2019-03-12T06:06:12.125Z,100.00
2019-03-12T06:08:40.405Z,100.00
2019-03-12T06:11:08.680Z,100.00
2019-03-12T06:13:36.941Z,100.00
2019-03-12T06:16:05.223Z,100.00
2019-03-12T06:18:33.504Z,100.00
2019-03-12T06:21:01.775Z,100.00
2019-03-12T06:23:30.043Z,100.00
2019-03-12T06:25:58.322Z,100.00
2019-03-12T06:28:26.589Z,100.00
2019-03-12T06:51:54.448Z,100.00
2019-03-12T07:03:48.932Z,100.00
2019-03-12T07:12:21.867Z,100.00
2019-03-12T07:28:22.003Z,100.00
2019-03-12T08:34:06.746Z,100.00
2019-03-12T08:39:43.076Z,100.00
2019-03-12T08:42:30.499Z,100.00
2019-03-12T08:45:17.901Z,100.00
2019-03-12T08:50:54.243Z,100.00
2019-03-12T08:53:41.623Z,100.00
2019-03-12T08:59:07.983Z,100.00
2019-03-12T09:01:55.375Z,100.00
2019-03-12T09:07:31.725Z,100.00
2019-03-12T09:10:19.124Z,100.00
2019-03-12T09:13:06.521Z,100.00
2019-03-12T09:15:53.902Z,99.81
2019-03-12T09:18:41.288Z,98.42
2019-03-12T09:29:45.546Z,98.20
2019-03-12T09:47:12.932Z,96.04
2019-03-12T09:50:00.813Z,93.40
2019-03-12T10:49:10.872Z,89.65
2019-03-12T10:51:39.139Z,90.40
2019-03-12T10:54:07.391Z,89.45
2019-03-12T10:59:39.719Z,89.80
2019-03-12T11:05:45.423Z,89.26
2019-03-12T11:11:11.263Z,89.77
2019-03-12T11:13:40.437Z,90.14
2019-03-12T11:16:08.704Z,90.60
2019-03-12T11:18:36.974Z,91.21
2019-03-12T11:21:05.243Z,89.79
2019-03-12T11:23:33.506Z,90.59
2019-03-12T11:26:01.763Z,90.83
2019-03-12T11:28:49.447Z,90.08
2019-03-12T11:31:17.698Z,89.43
2019-03-12T11:33:45.975Z,90.01
2019-03-12T11:39:24.181Z,92.62
2019-03-12T11:41:52.501Z,92.80
2019-03-12T11:44:20.719Z,94.00
2019-03-12T11:46:49.030Z,94.17
2019-03-12T11:49:17.299Z,93.71
2019-03-12T11:51:45.561Z,95.25
2019-03-12T11:54:13.841Z,97.42
2019-03-12T11:59:39.694Z,100.00
2019-03-12T12:02:07.963Z,100.00
2019-03-12T12:10:29.959Z,100.00
2019-03-12T12:12:58.304Z,100.00
2019-03-12T12:15:26.584Z,100.00
2019-03-12T12:17:54.859Z,100.00
2019-03-12T12:20:29.468Z,100.00
2019-03-12T12:22:53.118Z,100.00
2019-03-12T12:32:02.860Z,100.00
2019-03-12T12:34:31.140Z,100.00
2019-03-12T12:40:38.111Z,100.00
2019-03-12T12:43:06.396Z,100.00
2019-03-12T12:46:08.416Z,100.00
2019-03-12T12:48:36.685Z,100.00
2019-03-12T12:51:04.949Z,100.00
2019-03-12T12:53:33.219Z,99.92
2019-03-12T12:56:01.511Z,99.48
2019-03-12T12:58:29.771Z,97.80
2019-03-12T13:00:58.030Z,97.00
2019-03-12T13:03:26.301Z,95.69
2019-03-12T13:12:14.929Z,94.45
2019-03-12T13:14:43.187Z,94.68
2019-03-12T13:20:19.087Z,93.16
2019-03-12T13:22:47.361Z,93.23
2019-03-12T13:28:27.416Z,92.45
2019-03-12T13:30:55.673Z,92.16
2019-03-12T13:33:23.929Z,92.45
2019-03-12T13:35:52.217Z,91.88
2019-03-12T13:38:20.460Z,91.96
2019-03-12T13:40:48.740Z,90.76
2019-03-12T13:46:09.099Z,89.14
2019-03-12T13:48:37.371Z,88.99
2019-03-12T13:51:05.680Z,89.02
2019-03-12T13:53:53.301Z,88.97
2019-03-12T13:56:21.546Z,89.81
2019-03-12T13:58:49.801Z,89.81
2019-03-12T14:04:14.112Z,90.07
2019-03-12T14:06:42.359Z,88.71
2019-03-12T14:09:29.983Z,88.89
2019-03-12T14:11:59.294Z,89.47
2019-03-12T14:14:28.256Z,88.72
2019-03-12T14:16:56.528Z,88.67
2019-03-12T14:19:24.787Z,88.50
2019-03-12T14:21:53.156Z,87.71
2019-03-12T14:24:21.408Z,87.45
2019-03-12T14:26:49.680Z,88.47
2019-03-12T14:29:18.013Z,88.40
2019-03-12T14:31:46.329Z,87.58
2019-03-12T14:34:14.597Z,87.60
2019-03-12T14:36:42.859Z,86.95
2019-03-12T14:42:21.036Z,86.35
2019-03-12T14:44:49.297Z,87.07
2019-03-12T14:47:17.636Z,86.73
2019-03-12T14:49:45.907Z,86.10
2019-03-12T15:00:44.558Z,85.85
2019-03-12T15:06:01.771Z,85.00
2019-03-12T15:08:30.025Z,84.21
2019-03-12T15:10:58.284Z,84.57
2019-03-12T15:19:36.480Z,83.24
2019-03-12T15:22:04.742Z,83.14
2019-03-12T15:27:51.692Z,83.03
2019-03-12T15:30:53.514Z,82.66
2019-03-12T15:33:21.778Z,82.37
2019-03-12T15:35:50.050Z,81.24
2019-03-12T15:44:19.505Z,80.07
2019-03-12T15:46:48.997Z,80.89
2019-03-12T15:49:17.229Z,79.97
2019-03-12T15:51:45.496Z,80.55
2019-03-12T15:54:13.774Z,80.17
2019-03-12T15:56:42.040Z,81.01
2019-03-12T15:59:10.301Z,82.97
2019-03-12T16:04:46.620Z,84.75
2019-03-12T16:07:14.876Z,84.07
2019-03-12T16:09:43.149Z,84.31
2019-03-12T16:12:11.405Z,82.54
2019-03-12T16:14:39.676Z,83.94
2019-03-12T16:17:08.743Z,86.32
2019-03-12T16:19:37.032Z,87.72
2019-03-12T16:22:05.268Z,86.85
2019-03-12T16:24:33.520Z,87.38
2019-03-12T16:27:03.325Z,85.82
2019-03-12T16:29:31.760Z,85.92
2019-03-12T16:32:00.026Z,85.33
2019-03-12T16:34:28.271Z,83.85
2019-03-12T16:36:56.533Z,82.56
2019-03-12T16:39:24.790Z,81.74
2019-03-12T16:41:53.045Z,81.07
2019-03-12T16:44:21.322Z,82.27
2019-03-12T16:46:49.588Z,82.56
2019-03-12T16:49:17.849Z,82.17
2019-03-12T16:57:35.254Z,82.11
2019-03-12T17:03:22.647Z,82.26
2019-03-12T17:09:02.516Z,81.21
2019-03-12T17:11:30.791Z,80.89
2019-03-12T17:13:59.064Z,80.92
2019-03-12T17:16:27.321Z,81.54
2019-03-12T17:18:55.580Z,80.77
2019-03-12T17:24:11.146Z,81.37
2019-03-12T17:26:39.618Z,82.13
2019-03-12T17:29:07.881Z,83.12
2019-03-12T17:31:36.142Z,83.51
2019-03-12T17:34:04.444Z,83.61
2019-03-12T17:36:32.691Z,83.18
2019-03-12T17:39:00.964Z,84.31
2019-03-12T17:41:29.219Z,85.62
2019-03-12T17:43:58.022Z,85.87
2019-03-12T17:46:27.471Z,86.99
2019-03-12T17:48:55.738Z,87.33
2019-03-12T17:51:24.000Z,86.78
2019-03-12T17:53:52.252Z,86.99
2019-03-12T17:56:20.516Z,87.33
2019-03-12T17:58:48.803Z,87.51
2019-03-12T18:01:17.006Z,86.12
2019-03-12T18:03:45.276Z,86.78
2019-03-12T18:06:13.548Z,86.58
2019-03-12T18:08:41.804Z,87.47
2019-03-12T18:11:10.039Z,87.94
2019-03-12T18:13:38.947Z,87.35
2019-03-12T18:16:07.195Z,86.68
2019-03-12T18:18:35.480Z,88.08
2019-03-12T18:21:03.759Z,88.64
2019-03-12T18:23:32.013Z,87.91
2019-03-12T18:26:12.704Z,85.41
2019-03-12T18:28:40.971Z,83.59
2019-03-12T18:31:09.228Z,83.71
2019-03-12T18:33:37.479Z,82.62
2019-03-12T18:36:05.730Z,83.87
2019-03-12T18:38:34.014Z,83.22
2019-03-12T18:41:02.274Z,80.89
2019-03-12T18:43:30.561Z,80.56
2019-03-12T18:45:58.816Z,80.85
2019-03-12T18:48:27.092Z,80.87
2019-03-12T18:50:55.340Z,81.13
2019-03-12T18:53:23.628Z,82.06
2019-03-12T18:56:23.539Z,82.03
2019-03-12T18:58:51.805Z,82.24
2019-03-12T19:01:20.051Z,82.54
2019-03-12T19:03:48.321Z,82.10
2019-03-12T19:09:43.922Z,80.11
2019-03-12T19:12:12.176Z,79.82
2019-03-12T19:14:40.442Z,79.45
2019-03-12T19:17:08.700Z,79.02
2019-03-12T19:19:36.963Z,78.57
2019-03-12T19:22:05.545Z,78.14
2019-03-12T19:24:33.801Z,78.08
2019-03-12T19:27:02.066Z,77.25
2019-03-12T19:29:30.318Z,76.18
2019-03-12T19:37:26.581Z,76.08
2019-03-12T19:39:54.865Z,76.21
2019-03-12T19:42:23.137Z,77.44
2019-03-12T19:44:51.392Z,79.27
2019-03-12T19:50:39.392Z,78.15
2019-03-12T19:53:07.665Z,78.41
2019-03-12T19:56:07.855Z,77.68
2019-03-12T19:58:36.125Z,76.49
2019-03-12T20:01:04.464Z,77.29
2019-03-12T20:03:32.744Z,77.09
2019-03-12T20:06:32.307Z,76.72
2019-03-12T20:09:00.626Z,77.80
2019-03-12T20:12:00.614Z,76.99
2019-03-12T20:15:07.601Z,75.89
2019-03-12T20:18:14.581Z,76.71
2019-03-12T20:21:21.593Z,76.51
2019-03-12T20:24:28.569Z,76.15
2019-03-12T20:27:35.666Z,76.20
2019-03-12T20:30:35.380Z,74.36
2019-03-12T20:36:54.590Z,75.30
2019-03-12T20:40:01.589Z,75.22
2019-03-12T20:43:08.573Z,74.56
2019-03-12T20:46:15.539Z,75.00
2019-03-12T20:49:22.505Z,75.42
2019-03-12T20:52:29.504Z,74.49
2019-03-12T20:55:36.478Z,74.87
2019-03-12T20:58:43.458Z,73.70
2019-03-12T21:01:50.438Z,73.75
2019-03-12T21:04:57.433Z,72.96
2019-03-12T21:08:04.408Z,71.57
2019-03-12T21:11:04.061Z,72.75
2019-03-12T21:14:04.010Z,74.16
2019-03-12T21:17:11.010Z,73.66
2019-03-12T21:20:18.004Z,75.58
2019-03-12T21:23:25.002Z,75.06
2019-03-12T21:26:25.295Z,77.25
2019-03-12T21:32:44.709Z,78.38
2019-03-12T21:35:12.980Z,81.55
2019-03-12T21:37:41.238Z,87.07
2019-03-12T21:40:49.550Z,88.57
2019-03-12T21:43:17.801Z,89.35
2019-03-12T21:45:46.073Z,90.96
2019-03-12T21:48:14.314Z,90.82
2019-03-12T21:50:42.589Z,91.63
2019-03-12T21:53:10.838Z,90.99
2019-03-12T21:55:39.108Z,90.24
2019-03-12T21:58:07.379Z,90.48
2019-03-12T22:00:35.642Z,89.58
2019-03-12T22:03:03.924Z,89.38
2019-03-12T22:05:32.198Z,90.52
2019-03-12T22:08:00.455Z,90.04
2019-03-12T22:10:28.704Z,88.89
2019-03-12T22:12:57.073Z,89.40
2019-03-12T22:15:25.322Z,90.09
2019-03-12T22:17:53.580Z,90.40
2019-03-12T22:20:21.857Z,88.57
2019-03-12T22:23:09.247Z,88.54
2019-03-12T22:25:37.517Z,86.46
2019-03-12T22:28:05.770Z,85.47
2019-03-12T22:30:34.018Z,86.87
2019-03-12T22:33:02.272Z,87.38
2019-03-12T22:35:30.586Z,87.22
2019-03-12T22:37:58.854Z,85.92
2019-03-12T22:40:27.124Z,84.64
2019-03-12T22:42:55.375Z,85.60
2019-03-12T22:45:23.626Z,85.31
2019-03-12T22:47:51.881Z,84.03
2019-03-12T22:50:20.226Z,83.20
2019-03-12T22:52:48.491Z,81.98
2019-03-12T22:55:16.758Z,81.83
2019-03-12T22:57:45.009Z,82.35
2019-03-12T23:00:53.291Z,81.56
2019-03-12T23:03:21.556Z,81.92
2019-03-12T23:05:49.824Z,84.31
2019-03-12T23:08:18.094Z,84.57
2019-03-12T23:11:18.219Z,84.85
2019-03-12T23:13:46.492Z,86.36
2019-03-12T23:16:14.769Z,89.50
2019-03-12T23:18:43.110Z,90.12
2019-03-12T23:21:11.357Z,91.84
2019-03-12T23:23:40.230Z,92.67
2019-03-12T23:26:08.493Z,93.93
2019-03-12T23:28:36.747Z,93.65
2019-03-12T23:31:05.067Z,94.34
2019-03-12T23:33:33.390Z,96.01
2019-03-12T23:36:01.721Z,97.90
2019-03-12T23:38:29.979Z,98.20
2019-03-12T23:40:58.241Z,100.00
2019-03-12T23:43:26.527Z,99.14
2019-03-12T23:45:54.815Z,98.95
2019-03-12T23:48:23.028Z,96.76
2019-03-12T23:50:51.315Z,96.59
2019-03-12T23:53:19.577Z,95.41
2019-03-12T23:55:47.908Z,94.96
2019-03-12T23:58:16.174Z,95.22
